JBU3989 KMKE-KLAS
Flight info
| Callsign | JBU3989 |
|---|---|
| Flight time | N/A |
| Altitude | 32000 |
| Route | GREAS JAYEX OBH NACIK DEN DIRDY HASSL TYEGR CHOWW4 |
| Aircraft | A21N/M-SDE2E3FGHIJ1RWXY/LB1 |
Departure
| Time | 2026-05-03 20:24 |
|---|---|
| Airport | General Mitchell International Airport (KMKE) |
Arrival
| Time | N/A |
|---|---|
| Airport | Harry Reid International Airport (KLAS) |
| Time | Latitude | Longitude | Altitude | Speed | Heading |
|---|---|---|---|---|---|
| 2026-05-03 20:15 | 42.94879 | -87.89704 | 686 ft | 0 kts | 187° |
| 2026-05-03 20:18 | 42.94878 | -87.89704 | 693 ft | 1 kts | 187° |
| 2026-05-03 20:19 | 42.94855 | -87.89708 | 689 ft | 6 kts | 187° |
| 2026-05-03 20:19 | 42.94800 | -87.89715 | 690 ft | 10 kts | 172° |
| 2026-05-03 20:19 | 42.94749 | -87.89637 | 688 ft | 11 kts | 140° |
| 2026-05-03 20:19 | 42.94695 | -87.89635 | 691 ft | 8 kts | 195° |
| 2026-05-03 20:20 | 42.94641 | -87.89632 | 691 ft | 8 kts | 141° |
| 2026-05-03 20:20 | 42.94620 | -87.89557 | 693 ft | 9 kts | 95° |
| 2026-05-03 20:20 | 42.94613 | -87.89464 | 690 ft | 10 kts | 96° |
| 2026-05-03 20:20 | 42.94611 | -87.89366 | 693 ft | 11 kts | 79° |
| 2026-05-03 20:21 | 42.94635 | -87.89266 | 691 ft | 11 kts | 71° |
| 2026-05-03 20:21 | 42.94660 | -87.89158 | 691 ft | 12 kts | 72° |
| 2026-05-03 20:21 | 42.94688 | -87.89043 | 694 ft | 13 kts | 72° |
| 2026-05-03 20:21 | 42.94715 | -87.88929 | 692 ft | 4 kts | 76° |
| 2026-05-03 20:22 | 42.94706 | -87.88893 | 694 ft | 5 kts | 133° |
| 2026-05-03 20:22 | 42.94675 | -87.88872 | 686 ft | 5 kts | 162° |
| 2026-05-03 20:22 | 42.94635 | -87.88857 | 689 ft | 6 kts | 169° |
| 2026-05-03 20:22 | 42.94608 | -87.88905 | 691 ft | 7 kts | 256° |
| 2026-05-03 20:23 | 42.94586 | -87.88997 | 691 ft | 22 kts | 251° |
| 2026-05-03 20:23 | 42.94459 | -87.89511 | 689 ft | 92 kts | 251° |
| 2026-05-03 20:23 | 42.94191 | -87.90606 | 704 ft | 145 kts | 249° |
| 2026-05-03 20:23 | 42.93896 | -87.91903 | 1301 ft | 135 kts | 244° |
| 2026-05-03 20:24 | 42.93620 | -87.93049 | 2052 ft | 124 kts | 248° |
| 2026-05-03 20:24 | 42.93312 | -87.94249 | 2238 ft | 144 kts | 246° |
| 2026-05-03 20:24 | 42.93132 | -87.95700 | 2466 ft | 171 kts | 268° |
| 2026-05-03 20:24 | 42.93255 | -87.97433 | 2757 ft | 196 kts | 267° |
| 2026-05-03 20:25 | 42.93299 | -87.99373 | 3045 ft | 222 kts | 265° |
| 2026-05-03 20:25 | 42.93330 | -88.01581 | 3491 ft | 240 kts | 266° |
| 2026-05-03 20:25 | 42.93367 | -88.03879 | 4261 ft | 243 kts | 267° |
| 2026-05-03 20:25 | 42.93403 | -88.06183 | 5103 ft | 243 kts | 268° |
| 2026-05-03 20:26 | 42.93442 | -88.08504 | 5875 ft | 246 kts | 268° |
| 2026-05-03 20:26 | 42.93474 | -88.10866 | 6558 ft | 251 kts | 269° |
| 2026-05-03 20:26 | 42.93506 | -88.13076 | 7219 ft | 253 kts | 270° |
| 2026-05-03 20:26 | 42.93534 | -88.14987 | 7816 ft | 254 kts | 271° |
| 2026-05-03 20:27 | 42.93573 | -88.17400 | 8597 ft | 254 kts | 272° |
| 2026-05-03 20:27 | 42.93613 | -88.19821 | 9294 ft | 257 kts | 272° |
| 2026-05-03 20:27 | 42.93653 | -88.22253 | 9888 ft | 263 kts | 273° |
| 2026-05-03 20:27 | 42.93693 | -88.24797 | 10274 ft | 277 kts | 273° |
| 2026-05-03 20:28 | 42.93735 | -88.27513 | 10525 ft | 295 kts | 273° |
| 2026-05-03 20:28 | 42.93777 | -88.30397 | 10738 ft | 312 kts | 273° |
| 2026-05-03 20:28 | 42.93823 | -88.33435 | 10946 ft | 329 kts | 273° |
| 2026-05-03 20:28 | 42.93870 | -88.36626 | 11297 ft | 341 kts | 273° |
| 2026-05-03 20:29 | 42.93915 | -88.39892 | 11843 ft | 346 kts | 273° |
| 2026-05-03 20:29 | 42.93958 | -88.43190 | 12464 ft | 350 kts | 273° |
| 2026-05-03 20:29 | 42.93996 | -88.46524 | 13124 ft | 351 kts | 273° |
| 2026-05-03 20:29 | 42.94033 | -88.49842 | 13881 ft | 350 kts | 273° |
| 2026-05-03 20:30 | 42.94075 | -88.53175 | 14450 ft | 353 kts | 273° |
| 2026-05-03 20:30 | 42.94159 | -88.56545 | 14984 ft | 356 kts | 274° |
| 2026-05-03 20:30 | 42.94261 | -88.59950 | 15458 ft | 362 kts | 274° |
| 2026-05-03 20:30 | 42.94367 | -88.63406 | 15914 ft | 367 kts | 274° |
| 2026-05-03 20:31 | 42.94473 | -88.66907 | 16425 ft | 370 kts | 274° |
| 2026-05-03 20:31 | 42.94587 | -88.70423 | 17034 ft | 371 kts | 274° |
| 2026-05-03 20:31 | 42.94697 | -88.73901 | 17668 ft | 371 kts | 274° |
| 2026-05-03 20:31 | 42.94805 | -88.77440 | 18196 ft | 374 kts | 274° |
| 2026-05-03 20:32 | 42.94914 | -88.81007 | 18655 ft | 377 kts | 274° |
| 2026-05-03 20:32 | 42.95014 | -88.84595 | 19111 ft | 380 kts | 274° |
| 2026-05-03 20:32 | 42.95118 | -88.88212 | 19573 ft | 382 kts | 274° |
| 2026-05-03 20:32 | 42.95223 | -88.91848 | 20051 ft | 385 kts | 274° |
| 2026-05-03 20:33 | 42.95330 | -88.95512 | 20503 ft | 387 kts | 274° |
| 2026-05-03 20:33 | 42.95441 | -88.99199 | 20942 ft | 390 kts | 274° |
| 2026-05-03 20:33 | 42.95548 | -89.02923 | 21389 ft | 392 kts | 274° |
| 2026-05-03 20:33 | 42.95649 | -89.06655 | 21815 ft | 395 kts | 274° |
| 2026-05-03 20:34 | 42.95755 | -89.10403 | 22228 ft | 397 kts | 274° |
| 2026-05-03 20:34 | 42.95849 | -89.14185 | 22639 ft | 400 kts | 274° |
| 2026-05-03 20:34 | 42.95944 | -89.17942 | 23058 ft | 402 kts | 274° |
| 2026-05-03 20:34 | 42.96043 | -89.21768 | 23471 ft | 404 kts | 275° |
| 2026-05-03 20:35 | 42.96150 | -89.25648 | 23809 ft | 406 kts | 274° |
| 2026-05-03 20:35 | 42.96251 | -89.29469 | 24146 ft | 408 kts | 274° |
| 2026-05-03 20:35 | 42.96355 | -89.33358 | 24495 ft | 410 kts | 274° |
| 2026-05-03 20:35 | 42.96457 | -89.37253 | 24837 ft | 412 kts | 274° |
| 2026-05-03 20:36 | 42.96554 | -89.41181 | 25179 ft | 414 kts | 274° |
| 2026-05-03 20:36 | 42.96656 | -89.45090 | 25524 ft | 415 kts | 274° |
| 2026-05-03 20:36 | 42.96755 | -89.49035 | 25871 ft | 417 kts | 274° |
| 2026-05-03 20:36 | 42.96852 | -89.53024 | 26193 ft | 419 kts | 274° |
| 2026-05-03 20:37 | 42.96941 | -89.57014 | 26518 ft | 421 kts | 274° |
| 2026-05-03 20:37 | 42.97033 | -89.61025 | 26852 ft | 423 kts | 274° |